createdAt,value
2023-04-29T04:16:48.489Z,3.00
2023-04-29T04:17:53.407Z,3.75
2023-04-29T04:18:58.552Z,3.50
2023-04-29T04:20:03.482Z,3.50
2023-04-29T04:21:09.838Z,3.50
2023-04-29T04:22:14.342Z,4.00
2023-04-29T04:23:18.846Z,3.00
2023-04-29T04:24:23.146Z,3.50
2023-04-29T04:25:27.355Z,3.75
2023-04-29T04:26:31.460Z,4.50
2023-04-29T04:27:36.485Z,4.50
2023-04-29T04:28:41.216Z,4.00
2023-04-29T04:29:45.866Z,3.50
2023-04-29T04:39:31.936Z,5.00
2023-04-29T04:40:37.112Z,3.75
2023-04-29T04:41:42.429Z,3.25
2023-04-29T04:42:46.967Z,3.25
2023-04-29T04:43:51.476Z,4.00
2023-04-29T04:44:56.694Z,4.00
2023-04-29T04:46:01.694Z,3.25
2023-04-29T04:47:06.256Z,3.75
2023-04-29T04:48:10.906Z,4.50
2023-04-29T04:49:15.736Z,4.75
2023-04-29T04:50:20.193Z,5.00
2023-04-29T04:51:25.018Z,4.50
2023-04-29T04:52:29.920Z,5.75
2023-04-29T04:53:34.437Z,5.00
2023-04-29T04:54:39.253Z,5.25
2023-04-29T04:55:44.895Z,5.75
2023-04-29T04:56:49.665Z,6.00
2023-04-29T04:57:54.961Z,6.00
2023-04-29T04:59:00.128Z,6.25
2023-04-29T05:00:04.687Z,6.50
2023-04-29T05:01:09.708Z,7.00
2023-04-29T05:02:16.606Z,7.00
2023-04-29T05:03:21.368Z,7.00
2023-04-29T05:04:26.950Z,7.25
2023-04-29T05:05:31.871Z,7.00
2023-04-29T05:06:36.820Z,8.00
2023-04-29T05:07:40.917Z,9.00
2023-04-29T05:08:45.126Z,7.25
2023-04-29T05:09:53.139Z,7.00
2023-04-29T05:10:58.452Z,7.00
2023-04-29T05:12:03.572Z,7.50
2023-04-29T05:13:07.960Z,8.00
2023-04-29T05:14:11.846Z,8.00
2023-04-29T05:15:15.889Z,8.75
2023-04-29T05:16:22.119Z,9.00
2023-04-29T05:17:25.943Z,8.75
2023-04-29T05:18:29.488Z,8.50
2023-04-29T05:19:35.218Z,9.50
2023-04-29T05:20:39.133Z,10.50
2023-04-29T05:21:43.067Z,9.00
2023-04-29T05:22:47.194Z,10.50
2023-04-29T05:23:54.630Z,12.25
2023-04-29T05:25:01.034Z,12.00
2023-04-29T05:26:05.496Z,11.00
2023-04-29T05:27:11.820Z,11.50
2023-04-29T05:28:16.676Z,11.00
2023-04-29T05:29:21.692Z,12.50
2023-04-29T05:30:27.236Z,11.50
2023-04-29T05:31:33.943Z,11.50
2023-04-29T05:32:39.989Z,11.75
2023-04-29T05:33:44.472Z,11.50
2023-04-29T05:34:50.007Z,11.50
2023-04-29T05:35:54.501Z,12.00
2023-04-29T05:36:58.830Z,11.50
2023-04-29T05:38:03.448Z,11.50
2023-04-29T05:39:08.093Z,10.50
2023-04-29T05:40:15.473Z,11.00
2023-04-29T05:41:20.671Z,11.00
2023-04-29T05:42:25.386Z,11.50
2023-04-29T05:43:29.800Z,11.75
2023-04-29T05:44:34.646Z,12.50
2023-04-29T05:45:39.329Z,11.25
2023-04-29T05:46:43.736Z,10.50
2023-04-29T05:47:48.714Z,10.00
2023-04-29T05:48:54.804Z,11.00
2023-04-29T05:49:59.844Z,11.00
2023-04-29T05:51:04.280Z,11.50
2023-04-29T05:52:11.555Z,11.00
2023-04-29T05:53:17.471Z,11.00
2023-04-29T05:54:22.595Z,11.00
2023-04-29T05:55:27.212Z,10.50
2023-04-29T05:56:31.830Z,11.50
2023-04-29T05:57:40.137Z,11.50
2023-04-29T05:58:44.886Z,11.50
2023-04-29T05:59:49.687Z,10.25
2023-04-29T06:00:54.894Z,11.00
2023-04-29T06:01:59.512Z,10.50
2023-04-29T06:03:03.791Z,10.50
2023-04-29T06:04:08.648Z,11.50
2023-04-29T06:05:13.416Z,11.50
2023-04-29T06:06:18.091Z,11.00
2023-04-29T06:07:22.698Z,11.50
2023-04-29T06:08:26.903Z,11.50
2023-04-29T06:09:31.409Z,11.75
2023-04-29T06:10:35.813Z,12.00
2023-04-29T06:11:40.673Z,10.75
2023-04-29T06:12:45.559Z,10.25
2023-04-29T06:13:49.768Z,11.50
2023-04-29T06:14:54.074Z,10.50
2023-04-29T06:15:58.820Z,10.25
2023-04-29T06:17:02.934Z,10.25
2023-04-29T06:18:07.644Z,10.25
2023-04-29T06:19:13.080Z,9.50
2023-04-29T06:20:19.114Z,10.00
2023-04-29T06:21:27.116Z,10.00
2023-04-29T06:22:31.029Z,9.50
2023-04-29T06:23:34.980Z,8.50
2023-04-29T06:24:39.085Z,9.00
2023-04-29T06:25:42.946Z,9.00
2023-04-29T06:26:46.912Z,8.50
2023-04-29T06:27:50.765Z,10.00
2023-04-29T06:28:54.660Z,10.00
2023-04-29T06:30:03.750Z,10.00
2023-04-29T06:31:07.588Z,9.00
2023-04-29T06:32:12.413Z,9.00
2023-04-29T06:33:17.509Z,8.50
2023-04-29T06:34:21.317Z,8.50
2023-04-29T06:35:25.039Z,8.00
2023-04-29T06:36:28.924Z,8.00
2023-04-29T06:37:37.590Z,8.50
2023-04-29T06:38:40.314Z,9.00
2023-04-29T06:39:43.966Z,9.50
2023-04-29T06:40:47.376Z,9.50
2023-04-29T06:41:51.023Z,9.50
2023-04-29T06:42:54.825Z,9.50
2023-04-29T06:43:58.278Z,10.00
2023-04-29T06:45:01.775Z,9.50
2023-04-29T06:46:05.252Z,9.50
2023-04-29T06:47:08.950Z,10.50
2023-04-29T06:48:13.948Z,10.50
2023-04-29T06:49:17.050Z,10.50
2023-04-29T06:50:20.580Z,10.25
2023-04-29T06:51:24.094Z,10.25
2023-04-29T06:52:27.595Z,10.25
2023-04-29T06:53:31.257Z,10.50
2023-04-29T06:54:37.326Z,10.00
2023-04-29T06:55:40.849Z,10.00
2023-04-29T06:56:46.557Z,11.00
2023-04-29T06:57:50.140Z,10.50
2023-04-29T06:58:53.852Z,10.00
2023-04-29T06:59:57.575Z,10.00
2023-04-29T07:01:02.973Z,10.00
2023-04-29T07:02:06.638Z,10.50
2023-04-29T07:03:10.466Z,11.00
2023-04-29T07:04:14.308Z,11.25
2023-04-29T07:05:17.960Z,12.00
2023-04-29T07:06:23.694Z,10.75
2023-04-29T07:07:27.320Z,11.00
2023-04-29T07:08:31.300Z,10.50
2023-04-29T07:09:39.146Z,11.00
2023-04-29T07:10:42.906Z,10.50
2023-04-29T07:11:46.655Z,10.75
2023-04-29T07:25:16.322Z,10.00
2023-04-29T07:26:20.510Z,9.50
2023-04-29T07:27:25.035Z,9.00
2023-04-29T07:28:30.374Z,9.00
2023-04-29T07:29:34.718Z,8.75
2023-04-29T07:30:40.489Z,8.50
2023-04-29T07:31:44.925Z,8.00
2023-04-29T07:32:49.401Z,6.50
2023-04-29T07:33:54.235Z,7.00
2023-04-29T07:35:14.233Z,7.50
2023-04-29T07:36:18.686Z,7.00
2023-04-29T07:37:24.606Z,7.50
2023-04-29T07:38:31.509Z,7.50
2023-04-29T07:39:36.309Z,7.50
2023-04-29T07:40:40.866Z,8.50
2023-04-29T07:41:46.044Z,8.00
2023-04-29T07:42:52.435Z,8.00
2023-04-29T07:43:57.630Z,8.50
2023-04-29T07:45:05.537Z,7.75
2023-04-29T07:46:10.929Z,8.25
2023-04-29T07:47:16.185Z,7.50
2023-04-29T07:48:21.514Z,7.50
2023-04-29T07:49:26.125Z,7.25
2023-04-29T07:50:30.719Z,8.25
2023-04-29T07:51:35.753Z,8.25
2023-04-29T07:52:40.464Z,8.00
2023-04-29T07:53:44.928Z,8.50
2023-04-29T07:54:49.946Z,8.75
2023-04-29T07:55:54.339Z,9.00
2023-04-29T07:56:58.729Z,9.75
2023-04-29T07:58:02.660Z,9.00
2023-04-29T07:59:09.394Z,8.00
2023-04-29T08:00:14.119Z,9.25
2023-04-29T08:01:19.433Z,9.00
2023-04-29T08:02:24.876Z,8.75
2023-04-29T08:03:29.975Z,8.75
2023-04-29T08:04:34.991Z,9.75
2023-04-29T08:05:40.113Z,9.50
2023-04-29T08:06:45.073Z,9.00
2023-04-29T08:07:50.216Z,8.25
2023-04-29T08:08:55.236Z,9.50
2023-04-29T08:09:59.736Z,9.50
2023-04-29T08:11:05.073Z,8.50
2023-04-29T08:12:09.386Z,9.50
2023-04-29T08:13:15.225Z,9.50
2023-04-29T08:14:20.269Z,11.25
2023-04-29T08:15:28.354Z,10.25
2023-04-29T08:16:33.213Z,8.75
2023-04-29T08:17:37.838Z,9.50
2023-04-29T08:18:42.441Z,10.75
2023-04-29T08:19:47.370Z,11.00
2023-04-29T08:20:52.017Z,9.00
2023-04-29T08:21:56.957Z,10.00
2023-04-29T08:23:01.277Z,10.50
2023-04-29T08:24:05.883Z,9.50
2023-04-29T08:25:11.035Z,9.00
2023-04-29T08:26:15.418Z,8.75
2023-04-29T08:27:20.439Z,9.00
2023-04-29T08:28:25.388Z,9.00
2023-04-29T08:29:32.687Z,8.00
2023-04-29T08:30:37.075Z,10.25
2023-04-29T08:31:47.565Z,10.50
2023-04-29T08:32:52.301Z,9.00
2023-04-29T08:33:57.356Z,9.00
2023-04-29T08:35:03.728Z,10.50
2023-04-29T08:36:09.687Z,10.25
2023-04-29T08:37:16.446Z,9.25
2023-04-29T08:38:26.476Z,9.00
2023-04-29T08:39:30.683Z,9.00
2023-04-29T08:40:34.873Z,9.00
2023-04-29T08:41:39.316Z,8.25
2023-04-29T08:42:43.774Z,9.00
2023-04-29T08:43:48.156Z,9.00
2023-04-29T08:45:03.577Z,8.50
2023-04-29T08:46:09.794Z,8.50
2023-04-29T08:47:16.938Z,7.50
2023-04-29T08:48:27.223Z,7.50
2023-04-29T08:49:32.205Z,7.75
2023-04-29T08:50:37.929Z,7.50
2023-04-29T08:51:42.654Z,7.50
2023-04-29T08:52:47.802Z,6.00
2023-04-29T08:53:52.613Z,6.50
2023-04-29T08:54:58.285Z,7.00
2023-04-29T08:56:02.543Z,6.00
2023-04-29T08:57:06.766Z,5.00
2023-04-29T08:58:11.685Z,4.00
2023-04-29T08:59:15.611Z,5.00
2023-04-29T09:00:21.604Z,5.75
2023-04-29T09:01:27.035Z,5.50
2023-04-29T09:02:37.577Z,3.50
2023-04-29T09:03:41.581Z,4.50
2023-04-29T09:04:46.049Z,4.00
2023-04-29T09:05:54.785Z,3.50
2023-04-29T09:07:00.933Z,4.00
2023-04-29T09:08:18.199Z,3.00
2023-04-29T09:09:24.569Z,3.75
2023-04-29T09:10:31.411Z,4.00
2023-04-29T09:11:36.330Z,4.00
2023-04-29T09:12:40.953Z,3.00
2023-04-29T09:13:45.914Z,2.00
2023-04-29T09:14:50.582Z,2.00
2023-04-29T09:15:55.479Z,2.50
2023-04-29T09:16:59.838Z,2.00
2023-04-29T09:18:04.898Z,2.00
2023-04-29T09:19:09.192Z,2.50
2023-04-29T09:20:14.194Z,3.00
2023-04-29T09:21:21.697Z,2.50
2023-04-29T09:22:25.156Z,1.75
2023-04-29T09:23:35.533Z,2.75
2023-04-29T09:24:41.757Z,2.50
2023-04-29T09:25:50.672Z,2.00
2023-04-29T09:27:00.165Z,2.50
2023-04-29T09:28:04.732Z,1.50
2023-04-29T09:29:10.174Z,2.00
2023-04-29T09:30:14.754Z,2.00
2023-04-29T09:31:19.037Z,2.00
2023-04-29T09:32:23.712Z,1.25
2023-04-29T09:33:28.427Z,1.50
2023-04-29T09:34:35.792Z,1.50
2023-04-29T09:35:40.440Z,1.50
2023-04-29T09:36:44.810Z,1.75
2023-04-29T09:37:56.844Z,1.50
2023-04-29T09:39:02.542Z,2.25
2023-04-29T09:40:06.455Z,2.50
2023-04-29T09:41:11.575Z,3.50
2023-04-29T09:42:16.209Z,3.00
2023-04-29T09:43:20.401Z,3.00
2023-04-29T09:44:24.571Z,3.00
2023-04-29T09:45:31.374Z,1.50
2023-04-29T09:46:35.835Z,2.50
2023-04-29T09:47:40.993Z,2.00
2023-04-29T09:48:52.449Z,2.00
2023-04-29T09:50:01.100Z,2.50
2023-04-29T09:51:06.132Z,2.00
2023-04-29T09:52:10.606Z,1.75
2023-04-29T09:53:15.676Z,2.00
2023-04-29T09:54:21.115Z,1.75
2023-04-29T09:55:25.671Z,1.75
2023-04-29T09:56:34.554Z,1.00
2023-04-29T09:57:51.308Z,2.00
2023-04-29T09:58:57.389Z,1.50
2023-04-29T10:00:02.517Z,1.50
2023-04-29T10:01:06.707Z,1.50
2023-04-29T10:02:11.328Z,2.00
2023-04-29T10:03:16.201Z,1.50
2023-04-29T10:04:21.611Z,1.25
2023-04-29T10:05:26.657Z,0.25
2023-04-29T10:06:31.133Z,1.50
2023-04-29T10:07:36.008Z,1.50
2023-04-29T10:08:40.557Z,2.00
2023-04-29T10:09:49.376Z,1.25
2023-04-29T10:10:53.488Z,1.75
2023-04-29T10:11:58.456Z,2.00
2023-04-29T10:13:03.113Z,2.00
2023-04-29T10:14:07.615Z,2.00
2023-04-29T10:15:12.455Z,0.67
2023-04-29T10:16:17.361Z,1.50
2023-04-29T10:17:21.676Z,1.50
2023-04-29T10:18:28.175Z,2.00
2023-04-29T10:19:32.850Z,2.00
2023-04-29T10:20:37.573Z,1.50
2023-04-29T10:21:42.170Z,1.50
2023-04-29T10:22:46.703Z,2.00
2023-04-29T10:23:50.972Z,2.00
2023-04-29T10:24:57.232Z,1.50
2023-04-29T10:26:02.252Z,3.00
2023-04-29T10:27:06.592Z,2.50
2023-04-29T10:28:11.104Z,3.00
2023-04-29T10:29:15.613Z,3.00
2023-04-29T10:30:20.237Z,3.50
2023-04-29T10:31:25.031Z,3.25
2023-04-29T10:32:34.397Z,3.50
2023-04-29T10:33:35.499Z,3.00
2023-04-29T10:34:40.551Z,2.50
2023-04-29T10:35:45.481Z,2.75
2023-04-29T10:36:50.239Z,2.25
2023-04-29T10:37:54.800Z,2.50
2023-04-29T10:38:59.196Z,3.25
2023-04-29T10:40:04.576Z,3.00
2023-04-29T10:41:12.560Z,4.00
2023-04-29T10:42:17.470Z,2.50
2023-04-29T10:43:21.994Z,2.50
2023-04-29T10:44:26.893Z,3.50
2023-04-29T10:45:31.859Z,3.50
2023-04-29T10:46:36.283Z,3.50
2023-04-29T10:47:40.879Z,4.00
2023-04-29T10:48:47.838Z,3.00
2023-04-29T10:49:53.351Z,2.00
2023-04-29T10:50:57.317Z,2.75
2023-04-29T10:52:02.080Z,2.25
2023-04-29T10:53:06.523Z,3.00
2023-04-29T10:54:12.549Z,3.00
2023-04-29T10:55:18.386Z,3.50
2023-04-29T10:56:23.196Z,2.50
2023-04-29T10:57:27.336Z,3.00
2023-04-29T10:58:46.358Z,4.75
2023-04-29T10:59:50.365Z,5.50
2023-04-29T11:00:54.778Z,7.25
2023-04-29T11:01:59.790Z,12.25
2023-04-29T11:03:04.100Z,10.00
2023-04-29T11:04:08.411Z,9.50
2023-04-29T11:05:12.949Z,8.00
2023-04-29T11:06:17.323Z,6.00
2023-04-29T11:07:21.437Z,5.25
2023-04-29T11:08:26.674Z,3.75
2023-04-29T11:09:32.400Z,3.00
2023-04-29T11:10:37.387Z,3.00
2023-04-29T11:11:42.338Z,2.25
2023-04-29T11:12:47.483Z,2.00
2023-04-29T11:13:51.923Z,2.00
2023-04-29T11:14:57.025Z,2.00
2023-04-29T11:16:01.469Z,1.75
2023-04-29T11:17:06.455Z,1.00
2023-04-29T11:18:10.706Z,1.00
2023-04-29T11:19:15.591Z,1.25
2023-04-29T11:20:19.986Z,2.00
2023-04-29T11:21:24.945Z,1.75
2023-04-29T11:22:31.497Z,1.75
2023-04-29T11:23:35.169Z,2.25
2023-04-29T11:24:39.467Z,2.00
2023-04-29T11:25:44.420Z,1.50
2023-04-29T11:26:49.127Z,1.75
2023-04-29T11:27:53.559Z,2.00
2023-04-29T11:28:57.930Z,2.00
2023-04-29T11:30:02.379Z,1.50
2023-04-29T11:31:07.072Z,2.50
2023-04-29T11:32:11.672Z,2.50
2023-04-29T11:33:16.205Z,1.50
2023-04-29T11:34:21.028Z,1.50
2023-04-29T11:35:25.839Z,2.50
2023-04-29T11:36:30.171Z,2.50
2023-04-29T11:37:34.749Z,2.00
2023-04-29T11:38:39.509Z,2.25
2023-04-29T11:39:44.320Z,2.50
2023-04-29T11:40:49.353Z,2.75
2023-04-29T11:41:54.479Z,2.25
2023-04-29T11:42:59.982Z,2.50
2023-04-29T11:44:05.050Z,2.50
2023-04-29T11:45:09.618Z,1.50
2023-04-29T11:46:16.142Z,2.00
2023-04-29T11:47:21.494Z,2.00
2023-04-29T11:48:26.349Z,2.00
2023-04-29T11:49:31.056Z,2.00
2023-04-29T11:50:35.368Z,2.25
2023-04-29T11:51:39.368Z,2.00
2023-04-29T11:52:43.866Z,1.75
2023-04-29T11:53:48.096Z,1.25
2023-04-29T11:54:52.574Z,1.00
2023-04-29T11:55:57.430Z,0.25
2023-04-29T11:57:01.729Z,1.00
2023-04-29T11:58:06.951Z,1.75
2023-04-29T11:59:11.383Z,0.75
2023-04-29T12:00:15.976Z,1.50
2023-04-29T12:01:20.372Z,1.00
2023-04-29T12:02:25.361Z,2.00
2023-04-29T12:03:30.087Z,1.00
2023-04-29T12:04:34.945Z,2.00
2023-04-29T12:05:39.752Z,0.75
2023-04-29T12:06:44.535Z,1.25
2023-04-29T12:07:49.625Z,1.50
2023-04-29T12:08:54.591Z,1.00
2023-04-29T12:09:59.370Z,2.00
2023-04-29T12:11:03.499Z,1.00
2023-04-29T12:12:08.252Z,1.50
2023-04-29T12:13:12.832Z,1.00
2023-04-29T12:14:17.518Z,0.50
2023-04-29T12:15:25.633Z,1.00
2023-04-29T12:16:30.174Z,1.50
2023-04-29T12:17:35.059Z,1.00
2023-04-29T12:18:39.446Z,1.00
2023-04-29T12:19:44.063Z,1.00
2023-04-29T12:20:48.407Z,0.50
2023-04-29T12:21:52.692Z,0.25
2023-04-29T12:22:57.005Z,0.50
2023-04-29T12:24:02.557Z,1.00
2023-04-29T12:25:06.763Z,1.00
2023-04-29T12:26:11.672Z,0.50
2023-04-29T12:27:16.002Z,1.25
2023-04-29T12:28:21.677Z,1.50
2023-04-29T12:29:25.754Z,1.50
2023-04-29T12:30:30.055Z,1.25
2023-04-29T12:31:34.178Z,1.25
2023-04-29T12:32:38.669Z,1.50
2023-04-29T12:33:42.694Z,2.00
2023-04-29T12:34:48.196Z,1.50
2023-04-29T12:35:52.213Z,2.50
2023-04-29T12:36:58.259Z,2.50
2023-04-29T12:38:02.894Z,3.75
2023-04-29T12:39:07.886Z,4.75
2023-04-29T12:40:12.918Z,5.00
2023-04-29T12:41:18.135Z,4.00
2023-04-29T12:42:21.944Z,4.00
2023-04-29T12:43:26.029Z,4.50
2023-04-29T12:44:31.699Z,4.50
2023-04-29T12:45:37.849Z,4.75
2023-04-29T12:46:43.758Z,4.00
2023-04-29T12:47:48.493Z,4.00
2023-04-29T12:48:52.939Z,3.50
2023-04-29T12:49:57.129Z,4.00
2023-04-29T12:51:03.603Z,4.00
2023-04-29T12:52:08.904Z,3.50
2023-04-29T12:53:13.755Z,3.00
2023-04-29T12:54:20.452Z,1.25
2023-04-29T12:55:24.431Z,0.50
2023-04-29T12:56:28.814Z,0.50
2023-04-29T12:57:33.608Z,0.50
2023-04-29T12:58:37.821Z,0.00
2023-04-29T12:59:42.142Z,0.00
2023-04-29T13:00:46.377Z,0.00
2023-04-29T13:01:51.000Z,0.00
2023-04-29T13:02:55.677Z,0.00
2023-04-29T13:03:59.856Z,0.00
2023-04-29T13:05:04.329Z,0.00
2023-04-29T13:06:08.902Z,0.00
2023-04-29T13:07:13.346Z,0.00
2023-04-29T13:08:17.719Z,0.00
2023-04-29T13:09:22.324Z,0.00
2023-04-29T13:10:29.488Z,0.00
2023-04-29T13:11:34.881Z,0.00
2023-04-29T13:12:39.246Z,0.00
2023-04-29T13:13:44.072Z,0.00
2023-04-29T13:14:49.085Z,0.00
2023-04-29T13:15:53.674Z,0.00
2023-04-29T13:16:58.057Z,0.00
2023-04-29T13:18:02.597Z,0.00
2023-04-29T13:19:24.664Z,0.00
2023-04-29T13:20:13.231Z,0.00
2023-04-29T13:21:17.597Z,0.00
2023-04-29T13:22:22.217Z,0.00
2023-04-29T13:23:27.644Z,0.00
2023-04-29T13:24:32.180Z,0.00
2023-04-29T13:25:37.133Z,0.00
2023-04-29T13:26:41.905Z,0.00
2023-04-29T13:27:46.380Z,0.00
2023-04-29T13:28:50.757Z,0.00
2023-04-29T13:29:54.948Z,0.00
2023-04-29T13:30:59.750Z,0.00
2023-04-29T13:32:04.591Z,0.00
2023-04-29T13:33:12.330Z,0.00
2023-04-29T13:34:14.322Z,0.00
2023-04-29T13:35:19.024Z,0.00
2023-04-29T13:36:23.464Z,0.00
2023-04-29T13:37:28.370Z,0.00
2023-04-29T13:38:32.568Z,0.00
2023-04-29T13:39:38.245Z,0.00
2023-04-29T13:40:46.547Z,0.00
2023-04-29T13:41:49.104Z,0.00
2023-04-29T13:43:02.053Z,0.00
2023-04-29T13:44:02.012Z,0.00
2023-04-29T13:45:06.632Z,0.00
2023-04-29T13:46:11.784Z,0.00
2023-04-29T13:47:18.036Z,0.00
2023-04-29T13:48:58.833Z,0.00
2023-04-29T13:55:38.248Z,0.00
2023-04-29T13:57:01.900Z,0.00
2023-04-29T14:02:42.445Z,0.00
2023-04-29T14:03:47.721Z,0.00
2023-04-29T14:07:20.775Z,0.00
2023-04-29T14:08:29.728Z,0.00
2023-04-29T14:09:36.896Z,0.00
2023-04-29T14:10:42.130Z,0.00
2023-04-29T14:11:46.438Z,0.00
2023-04-29T14:12:51.484Z,0.00
2023-04-29T14:13:56.488Z,0.00
2023-04-29T14:15:01.290Z,0.00
2023-04-29T14:16:05.741Z,0.00
2023-04-29T14:17:11.995Z,0.00
2023-04-29T14:18:16.819Z,0.00
2023-04-29T14:19:21.413Z,0.00
2023-04-29T14:20:25.876Z,0.00
2023-04-29T14:21:30.121Z,0.00
2023-04-29T14:22:34.244Z,0.00
2023-04-29T14:23:38.762Z,0.00
2023-04-29T14:24:43.519Z,0.00
2023-04-29T14:25:47.841Z,0.00
2023-04-29T14:26:52.369Z,0.00
2023-04-29T14:27:56.818Z,0.00
2023-04-29T14:29:02.759Z,0.00
2023-04-29T14:30:07.273Z,0.00
2023-04-29T14:31:11.585Z,0.00
2023-04-29T14:32:16.310Z,0.00
2023-04-29T14:33:20.434Z,0.00
2023-04-29T14:34:24.579Z,0.00
2023-04-29T14:35:29.295Z,0.00
2023-04-29T14:36:37.528Z,0.00
2023-04-29T14:37:42.404Z,0.00
2023-04-29T14:38:46.398Z,0.00
2023-04-29T14:39:50.727Z,0.00
2023-04-29T14:40:55.677Z,0.00
2023-04-29T14:43:04.299Z,0.00
2023-04-29T14:44:10.958Z,0.00
2023-04-29T14:45:15.055Z,0.00
2023-04-29T14:46:19.477Z,0.00
2023-04-29T14:47:24.467Z,0.00
2023-04-29T14:48:28.995Z,0.00
2023-04-29T14:49:33.368Z,0.00
2023-04-29T14:50:38.451Z,0.00
2023-04-29T14:51:42.727Z,0.00
2023-04-29T14:52:48.792Z,0.00
2023-04-29T14:53:53.105Z,0.00
2023-04-29T14:54:57.616Z,0.00
2023-04-29T14:56:04.078Z,0.00
2023-04-29T14:57:10.314Z,0.00
2023-04-29T14:58:14.732Z,0.00
2023-04-29T14:59:19.340Z,0.00
2023-04-29T15:00:23.750Z,0.00
2023-04-29T15:01:31.302Z,0.00
2023-04-29T15:02:35.073Z,0.00
2023-04-29T15:03:44.279Z,0.00
2023-04-29T15:04:45.841Z,0.00
2023-04-29T15:05:50.671Z,0.00
2023-04-29T15:06:55.033Z,0.00
2023-04-29T15:07:59.250Z,0.00
2023-04-29T15:09:04.367Z,0.00
2023-04-29T15:10:08.675Z,0.00
2023-04-29T15:11:13.148Z,0.00
2023-04-29T15:12:17.493Z,0.00
2023-04-29T15:13:22.730Z,0.00
2023-04-29T15:14:26.930Z,0.00
2023-04-29T15:15:31.030Z,0.00
2023-04-29T15:16:35.384Z,0.00
2023-04-29T15:17:40.014Z,0.00
2023-04-29T15:19:50.058Z,0.00
2023-04-29T15:20:54.314Z,0.00
2023-04-29T15:21:58.666Z,0.00
2023-04-29T15:23:02.748Z,0.00
2023-04-29T15:24:07.664Z,0.00
2023-04-29T15:25:12.187Z,0.00
2023-04-29T15:26:16.274Z,0.00
2023-04-29T15:27:21.534Z,0.00
2023-04-29T15:28:26.256Z,0.00
2023-04-29T15:29:30.946Z,0.00
2023-04-29T15:30:35.858Z,0.00
2023-04-29T15:31:42.450Z,0.00
2023-04-29T15:32:47.385Z,0.00
2023-04-29T15:33:51.652Z,0.00
2023-04-29T15:34:55.675Z,0.00
2023-04-29T15:36:01.228Z,0.00
2023-04-29T15:37:05.817Z,0.00
2023-04-29T15:38:10.116Z,0.00
2023-04-29T15:39:14.728Z,0.00
2023-04-29T15:40:19.239Z,0.00
2023-04-29T15:41:24.138Z,0.00
2023-04-29T15:42:28.772Z,0.00
2023-04-29T15:43:34.519Z,0.00
2023-04-29T15:44:39.437Z,0.00
2023-04-29T15:45:44.300Z,0.00
2023-04-29T15:46:49.196Z,0.00
2023-04-29T15:47:53.622Z,0.00
2023-04-29T15:48:58.010Z,0.00
2023-04-29T15:50:02.429Z,0.00
2023-04-29T15:51:07.496Z,0.00
2023-04-29T15:52:12.159Z,0.00
2023-04-29T15:53:16.775Z,0.00
2023-04-29T15:54:20.884Z,0.00
2023-04-29T15:55:24.996Z,0.00
2023-04-29T15:56:29.715Z,0.00
2023-04-29T15:57:34.136Z,0.00
2023-04-29T15:58:38.836Z,0.00
2023-04-29T15:59:43.764Z,0.00
2023-04-29T16:00:48.195Z,0.00
2023-04-29T16:01:53.020Z,0.00
2023-04-29T16:02:57.525Z,0.00
2023-04-29T16:04:01.828Z,0.00
2023-04-29T16:05:06.173Z,0.00
2023-04-29T16:06:11.255Z,0.00
2023-04-29T16:07:15.957Z,0.00
2023-04-29T16:08:20.991Z,0.00
2023-04-29T16:09:25.394Z,0.00
2023-04-29T16:10:29.758Z,0.00
2023-04-29T16:11:34.245Z,0.00
2023-04-29T16:12:38.111Z,0.00
2023-04-29T16:13:42.214Z,0.00
2023-04-29T16:14:46.461Z,0.00
2023-04-29T16:15:51.046Z,0.00
2023-04-29T16:16:55.101Z,0.00
2023-04-29T16:17:59.540Z,0.00
2023-04-29T16:19:03.795Z,0.00
2023-04-29T16:20:08.896Z,0.00
2023-04-29T16:21:13.163Z,0.00
2023-04-29T16:22:17.745Z,0.00
2023-04-29T16:23:22.033Z,0.00
2023-04-29T16:24:26.756Z,0.00
2023-04-29T16:25:31.475Z,0.00
2023-04-29T16:26:36.500Z,0.00
2023-04-29T16:27:41.573Z,0.00
2023-04-29T16:28:45.574Z,0.00
2023-04-29T16:29:50.351Z,0.00
2023-04-29T16:30:54.597Z,0.00
2023-04-29T16:32:00.002Z,0.00
2023-04-29T16:33:03.854Z,0.00
2023-04-29T16:34:08.900Z,0.00
2023-04-29T16:35:13.345Z,0.00
2023-04-29T16:36:18.466Z,0.00
2023-04-29T16:37:23.024Z,0.00
2023-04-29T16:38:29.617Z,0.00
2023-04-29T16:39:33.802Z,0.00
2023-04-29T16:40:38.041Z,0.00
2023-04-29T16:41:42.036Z,0.00
2023-04-29T16:42:46.444Z,0.00
2023-04-29T16:43:50.758Z,0.00
2023-04-29T16:44:55.564Z,0.00
2023-04-29T16:46:00.438Z,0.00
2023-04-29T16:47:04.800Z,0.00
2023-04-29T16:48:09.405Z,0.00
2023-04-29T16:49:13.718Z,0.00
2023-04-29T16:50:18.448Z,0.00
2023-04-29T16:51:22.461Z,0.00
2023-04-29T16:52:27.046Z,0.00
2023-04-29T16:53:31.692Z,0.00
2023-04-29T16:54:35.964Z,0.00
2023-04-29T16:55:40.377Z,0.00
2023-04-29T16:56:45.015Z,0.00
2023-04-29T16:57:49.609Z,0.00
2023-04-29T16:58:53.810Z,0.00
2023-04-29T16:59:58.041Z,0.00
2023-04-29T17:01:02.334Z,0.00
2023-04-29T17:02:06.780Z,0.00
2023-04-29T17:03:11.112Z,0.00
2023-04-29T17:04:15.540Z,0.00
2023-04-29T17:05:19.818Z,0.00
2023-04-29T17:06:24.315Z,0.00
2023-04-29T17:07:28.496Z,0.00
2023-04-29T17:08:32.760Z,0.00
2023-04-29T17:09:37.242Z,0.00
2023-04-29T17:10:41.696Z,0.00
2023-04-29T17:11:46.144Z,0.00
2023-04-29T17:12:50.763Z,0.00
2023-04-29T17:13:55.563Z,0.00
2023-04-29T17:14:59.978Z,0.00
2023-04-29T17:16:04.420Z,0.00
2023-04-29T17:17:09.205Z,0.00
2023-04-29T17:18:13.314Z,0.00
2023-04-29T17:19:17.726Z,0.00
2023-04-29T17:20:22.151Z,0.00
2023-04-29T17:21:26.661Z,0.00
2023-04-29T17:22:30.648Z,0.00
2023-04-29T17:23:34.845Z,0.00
2023-04-29T17:24:42.435Z,0.00
2023-04-29T17:25:46.458Z,0.00
2023-04-29T17:26:50.779Z,0.00
2023-04-29T17:27:55.076Z,0.00
2023-04-29T17:28:59.163Z,0.00
2023-04-29T17:30:03.470Z,0.00
2023-04-29T17:31:07.883Z,0.00
2023-04-29T17:32:12.277Z,0.00
2023-04-29T17:33:16.502Z,0.00
2023-04-29T17:34:20.502Z,0.00
2023-04-29T17:35:25.137Z,0.00
2023-04-29T17:36:29.212Z,0.00
2023-04-29T17:37:34.035Z,0.00
2023-04-29T17:38:38.950Z,0.00
2023-04-29T17:39:43.254Z,0.00
2023-04-29T17:40:47.680Z,0.00
2023-04-29T17:41:52.413Z,0.00
2023-04-29T17:42:56.732Z,0.00
2023-04-29T17:44:01.137Z,0.00
2023-04-29T17:45:05.834Z,0.00
2023-04-29T17:46:09.934Z,0.00
2023-04-29T17:47:15.585Z,0.00
2023-04-29T17:48:19.995Z,0.00
2023-04-29T17:49:24.597Z,0.00
2023-04-29T17:50:28.815Z,0.00
2023-04-29T17:51:33.914Z,0.00
2023-04-29T17:52:38.239Z,0.00
2023-04-29T17:53:43.270Z,0.00
2023-04-29T17:54:48.532Z,0.00
2023-04-29T17:55:52.796Z,0.00
2023-04-29T17:56:57.518Z,0.00
2023-04-29T17:58:02.263Z,0.00
2023-04-29T17:59:06.445Z,0.00
2023-04-29T18:00:10.785Z,0.00
2023-04-29T18:01:15.306Z,0.00
2023-04-29T18:02:19.586Z,0.00
2023-04-29T18:03:24.193Z,0.00
2023-04-29T18:04:28.303Z,0.00
2023-04-29T18:05:32.959Z,0.00
2023-04-29T18:06:37.815Z,0.00
2023-04-29T18:07:42.354Z,0.00
2023-04-29T18:08:46.585Z,0.00
2023-04-29T18:09:51.597Z,0.00
2023-04-29T18:10:55.965Z,0.00
2023-04-29T18:12:00.619Z,0.00
2023-04-29T18:13:05.129Z,0.00
2023-04-29T18:14:10.771Z,0.00
2023-04-29T18:15:15.218Z,0.00
2023-04-29T18:16:20.655Z,0.00
2023-04-29T18:17:25.835Z,0.00
2023-04-29T18:18:30.252Z,0.00
2023-04-29T18:19:35.086Z,0.00
2023-04-29T18:20:38.876Z,0.00
2023-04-29T18:21:42.752Z,0.00
2023-04-29T18:22:47.103Z,0.00
2023-04-29T18:23:50.976Z,0.00
2023-04-29T18:24:54.791Z,0.00
2023-04-29T18:26:00.064Z,0.00
2023-04-29T18:27:04.808Z,0.00
2023-04-29T18:28:24.162Z,0.00
2023-04-29T18:29:16.409Z,0.00
2023-04-29T18:30:21.433Z,0.00
2023-04-29T18:31:25.709Z,0.00
2023-04-29T18:32:30.237Z,0.00
2023-04-29T18:33:34.069Z,0.00
2023-04-29T18:34:39.367Z,0.00
2023-04-29T18:35:43.372Z,0.00
2023-04-29T18:36:48.289Z,0.00
2023-04-29T18:37:52.406Z,0.00
2023-04-29T18:38:57.116Z,0.00
2023-04-29T18:40:01.966Z,0.00
2023-04-29T18:41:06.141Z,0.00
2023-04-29T18:42:10.772Z,0.00
2023-04-29T18:43:15.467Z,0.00
2023-04-29T18:44:19.994Z,0.00
2023-04-29T18:45:24.636Z,0.00
2023-04-29T18:46:28.970Z,0.00
2023-04-29T18:47:33.546Z,0.00
2023-04-29T18:48:38.179Z,0.00
2023-04-29T18:49:44.389Z,0.00
2023-04-29T18:50:48.188Z,0.00
2023-04-29T18:51:52.606Z,0.00
2023-04-29T18:52:57.624Z,0.00
2023-04-29T18:54:02.250Z,0.00
2023-04-29T18:55:06.970Z,0.00
2023-04-29T18:56:12.012Z,0.00
2023-04-29T18:57:16.296Z,0.00
2023-04-29T18:58:20.494Z,0.00
2023-04-29T18:59:24.909Z,0.00
2023-04-29T19:00:29.010Z,0.00
2023-04-29T19:01:33.367Z,0.00
2023-04-29T19:02:37.636Z,0.00
2023-04-29T19:03:41.737Z,0.00
2023-04-29T19:04:46.182Z,0.00
2023-04-29T19:05:50.146Z,0.00
2023-04-29T19:06:54.270Z,0.00
2023-04-29T19:07:58.754Z,0.00
2023-04-29T19:09:02.754Z,0.00
2023-04-29T19:10:06.671Z,0.00
2023-04-29T19:11:11.186Z,0.00
2023-04-29T19:12:15.293Z,0.00
2023-04-29T19:13:19.308Z,0.00
2023-04-29T19:14:23.291Z,0.00